sensor_id;sensor_type;location;lat;lon;timestamp;P1;durP1;ratioP1;P2;durP2;ratioP2
71080;SDS011;58740;50.672;18.690;2023-05-28T00:00:48;12.00;;;4.10;;
71080;SDS011;58740;50.672;18.690;2023-05-28T00:03:37;7.20;;;2.80;;
71080;SDS011;58740;50.672;18.690;2023-05-28T00:06:06;7.20;;;3.40;;
71080;SDS011;58740;50.672;18.690;2023-05-28T00:08:34;10.00;;;3.80;;
71080;SDS011;58740;50.672;18.690;2023-05-28T00:11:02;9.40;;;3.30;;
71080;SDS011;58740;50.672;18.690;2023-05-28T00:13:32;9.00;;;3.10;;
71080;SDS011;58740;50.672;18.690;2023-05-28T00:16:00;10.80;;;3.50;;
71080;SDS011;58740;50.672;18.690;2023-05-28T00:18:28;10.60;;;4.20;;
71080;SDS011;58740;50.672;18.690;2023-05-28T00:20:55;9.20;;;3.70;;
71080;SDS011;58740;50.672;18.690;2023-05-28T00:23:23;7.80;;;3.40;;
71080;SDS011;58740;50.672;18.690;2023-05-28T00:25:51;11.80;;;3.30;;
71080;SDS011;58740;50.672;18.690;2023-05-28T00:28:19;10.10;;;3.20;;
71080;SDS011;58740;50.672;18.690;2023-05-28T00:30:47;10.50;;;3.70;;
71080;SDS011;58740;50.672;18.690;2023-05-28T00:33:15;10.20;;;3.80;;
71080;SDS011;58740;50.672;18.690;2023-05-28T00:35:43;7.90;;;3.50;;
71080;SDS011;58740;50.672;18.690;2023-05-28T00:38:11;9.30;;;3.90;;
71080;SDS011;58740;50.672;18.690;2023-05-28T00:40:43;8.30;;;3.30;;
71080;SDS011;58740;50.672;18.690;2023-05-28T00:43:12;9.30;;;3.60;;
71080;SDS011;58740;50.672;18.690;2023-05-28T00:45:40;8.60;;;3.90;;
71080;SDS011;58740;50.672;18.690;2023-05-28T00:48:08;8.90;;;3.50;;
71080;SDS011;58740;50.672;18.690;2023-05-28T00:50:36;9.80;;;3.70;;
71080;SDS011;58740;50.672;18.690;2023-05-28T00:53:06;10.00;;;3.60;;
71080;SDS011;58740;50.672;18.690;2023-05-28T00:55:35;7.60;;;3.20;;
71080;SDS011;58740;50.672;18.690;2023-05-28T00:58:03;6.80;;;3.20;;
71080;SDS011;58740;50.672;18.690;2023-05-28T01:00:36;8.30;;;3.30;;
71080;SDS011;58740;50.672;18.690;2023-05-28T01:03:04;10.90;;;3.10;;
71080;SDS011;58740;50.672;18.690;2023-05-28T01:05:33;10.90;;;4.30;;
71080;SDS011;58740;50.672;18.690;2023-05-28T01:08:03;8.20;;;3.30;;
71080;SDS011;58740;50.672;18.690;2023-05-28T01:10:33;8.20;;;3.00;;
71080;SDS011;58740;50.672;18.690;2023-05-28T01:13:04;7.20;;;2.50;;
71080;SDS011;58740;50.672;18.690;2023-05-28T01:15:34;6.40;;;3.10;;
71080;SDS011;58740;50.672;18.690;2023-05-28T01:18:04;7.00;;;2.90;;
71080;SDS011;58740;50.672;18.690;2023-05-28T01:20:34;9.40;;;3.20;;
71080;SDS011;58740;50.672;18.690;2023-05-28T01:23:06;6.50;;;2.30;;
71080;SDS011;58740;50.672;18.690;2023-05-28T01:25:35;6.10;;;2.80;;
71080;SDS011;58740;50.672;18.690;2023-05-28T01:28:12;6.50;;;2.40;;
71080;SDS011;58740;50.672;18.690;2023-05-28T01:30:43;7.80;;;3.00;;
71080;SDS011;58740;50.672;18.690;2023-05-28T01:33:12;8.20;;;2.50;;
71080;SDS011;58740;50.672;18.690;2023-05-28T01:35:40;6.10;;;2.40;;
71080;SDS011;58740;50.672;18.690;2023-05-28T01:38:10;13.30;;;2.80;;
71080;SDS011;58740;50.672;18.690;2023-05-28T01:40:43;9.10;;;2.80;;
71080;SDS011;58740;50.672;18.690;2023-05-28T01:43:14;11.20;;;3.30;;
71080;SDS011;58740;50.672;18.690;2023-05-28T01:45:43;6.00;;;2.70;;
71080;SDS011;58740;50.672;18.690;2023-05-28T01:48:11;8.10;;;3.10;;
71080;SDS011;58740;50.672;18.690;2023-05-28T01:50:39;7.30;;;2.90;;
71080;SDS011;58740;50.672;18.690;2023-05-28T01:53:07;7.50;;;3.10;;
71080;SDS011;58740;50.672;18.690;2023-05-28T01:55:34;8.40;;;3.80;;
71080;SDS011;58740;50.672;18.690;2023-05-28T01:58:03;7.60;;;2.90;;
71080;SDS011;58740;50.672;18.690;2023-05-28T02:00:32;8.10;;;2.70;;
71080;SDS011;58740;50.672;18.690;2023-05-28T02:03:05;9.10;;;2.80;;
71080;SDS011;58740;50.672;18.690;2023-05-28T02:05:35;5.50;;;2.60;;
71080;SDS011;58740;50.672;18.690;2023-05-28T02:08:02;7.20;;;2.00;;
71080;SDS011;58740;50.672;18.690;2023-05-28T02:10:30;7.80;;;2.70;;
71080;SDS011;58740;50.672;18.690;2023-05-28T02:12:58;6.60;;;2.10;;
71080;SDS011;58740;50.672;18.690;2023-05-28T02:15:28;7.30;;;2.60;;
71080;SDS011;58740;50.672;18.690;2023-05-28T02:17:55;6.10;;;2.60;;
71080;SDS011;58740;50.672;18.690;2023-05-28T02:20:24;7.90;;;2.60;;
71080;SDS011;58740;50.672;18.690;2023-05-28T02:22:52;5.80;;;2.30;;
71080;SDS011;58740;50.672;18.690;2023-05-28T02:25:20;5.30;;;2.20;;
71080;SDS011;58740;50.672;18.690;2023-05-28T02:27:48;8.50;;;2.50;;
71080;SDS011;58740;50.672;18.690;2023-05-28T02:30:16;6.60;;;2.50;;
71080;SDS011;58740;50.672;18.690;2023-05-28T02:32:44;9.90;;;3.20;;
71080;SDS011;58740;50.672;18.690;2023-05-28T02:35:11;7.50;;;2.70;;
71080;SDS011;58740;50.672;18.690;2023-05-28T02:37:40;10.10;;;3.50;;
71080;SDS011;58740;50.672;18.690;2023-05-28T02:40:08;7.50;;;3.00;;
71080;SDS011;58740;50.672;18.690;2023-05-28T02:42:37;6.20;;;2.60;;
71080;SDS011;58740;50.672;18.690;2023-05-28T02:45:05;5.10;;;2.40;;
71080;SDS011;58740;50.672;18.690;2023-05-28T02:47:33;9.70;;;2.40;;
71080;SDS011;58740;50.672;18.690;2023-05-28T02:50:01;7.60;;;3.10;;
71080;SDS011;58740;50.672;18.690;2023-05-28T02:52:29;8.30;;;2.80;;
71080;SDS011;58740;50.672;18.690;2023-05-28T02:54:57;6.90;;;3.20;;
71080;SDS011;58740;50.672;18.690;2023-05-28T02:57:25;8.70;;;2.60;;
71080;SDS011;58740;50.672;18.690;2023-05-28T02:59:53;6.50;;;2.80;;
71080;SDS011;58740;50.672;18.690;2023-05-28T03:02:21;7.40;;;2.80;;
71080;SDS011;58740;50.672;18.690;2023-05-28T03:04:49;7.80;;;2.70;;
71080;SDS011;58740;50.672;18.690;2023-05-28T03:07:17;6.80;;;3.00;;
71080;SDS011;58740;50.672;18.690;2023-05-28T03:09:45;7.90;;;2.70;;
71080;SDS011;58740;50.672;18.690;2023-05-28T03:12:12;6.90;;;2.90;;
71080;SDS011;58740;50.672;18.690;2023-05-28T03:14:40;6.50;;;3.10;;
71080;SDS011;58740;50.672;18.690;2023-05-28T03:17:08;6.20;;;2.80;;
71080;SDS011;58740;50.672;18.690;2023-05-28T03:19:35;5.90;;;2.80;;
71080;SDS011;58740;50.672;18.690;2023-05-28T03:22:04;7.10;;;3.00;;
71080;SDS011;58740;50.672;18.690;2023-05-28T03:24:31;8.80;;;4.20;;
71080;SDS011;58740;50.672;18.690;2023-05-28T03:27:00;7.80;;;3.20;;
71080;SDS011;58740;50.672;18.690;2023-05-28T03:29:29;7.70;;;2.80;;
71080;SDS011;58740;50.672;18.690;2023-05-28T03:31:57;7.60;;;2.70;;
71080;SDS011;58740;50.672;18.690;2023-05-28T03:34:24;6.60;;;3.00;;
71080;SDS011;58740;50.672;18.690;2023-05-28T03:36:52;6.90;;;2.30;;
71080;SDS011;58740;50.672;18.690;2023-05-28T03:39:20;8.50;;;2.80;;
71080;SDS011;58740;50.672;18.690;2023-05-28T03:41:48;7.10;;;2.70;;
71080;SDS011;58740;50.672;18.690;2023-05-28T03:44:18;6.30;;;2.40;;
71080;SDS011;58740;50.672;18.690;2023-05-28T03:46:46;5.80;;;2.20;;
71080;SDS011;58740;50.672;18.690;2023-05-28T03:49:13;6.80;;;2.00;;
71080;SDS011;58740;50.672;18.690;2023-05-28T03:51:41;9.50;;;2.10;;
71080;SDS011;58740;50.672;18.690;2023-05-28T03:54:09;7.20;;;2.00;;
71080;SDS011;58740;50.672;18.690;2023-05-28T03:56:37;6.60;;;2.00;;
71080;SDS011;58740;50.672;18.690;2023-05-28T03:59:05;7.30;;;1.70;;
71080;SDS011;58740;50.672;18.690;2023-05-28T04:01:33;7.60;;;2.20;;
71080;SDS011;58740;50.672;18.690;2023-05-28T04:04:04;5.00;;;2.00;;
71080;SDS011;58740;50.672;18.690;2023-05-28T04:06:32;7.40;;;2.30;;
71080;SDS011;58740;50.672;18.690;2023-05-28T04:09:00;7.40;;;2.00;;
71080;SDS011;58740;50.672;18.690;2023-05-28T04:11:28;5.60;;;2.10;;
71080;SDS011;58740;50.672;18.690;2023-05-28T04:13:57;5.80;;;1.90;;
71080;SDS011;58740;50.672;18.690;2023-05-28T04:16:25;5.70;;;2.00;;
71080;SDS011;58740;50.672;18.690;2023-05-28T04:18:53;6.50;;;2.60;;
71080;SDS011;58740;50.672;18.690;2023-05-28T04:21:21;8.20;;;2.30;;
71080;SDS011;58740;50.672;18.690;2023-05-28T04:23:49;7.50;;;2.10;;
71080;SDS011;58740;50.672;18.690;2023-05-28T04:26:17;6.00;;;2.20;;
71080;SDS011;58740;50.672;18.690;2023-05-28T04:28:48;5.90;;;2.50;;
71080;SDS011;58740;50.672;18.690;2023-05-28T04:31:18;7.50;;;2.00;;
71080;SDS011;58740;50.672;18.690;2023-05-28T04:33:46;6.60;;;2.00;;
71080;SDS011;58740;50.672;18.690;2023-05-28T04:36:14;5.40;;;2.10;;
71080;SDS011;58740;50.672;18.690;2023-05-28T04:38:42;6.00;;;2.10;;
71080;SDS011;58740;50.672;18.690;2023-05-28T04:41:10;6.10;;;2.10;;
71080;SDS011;58740;50.672;18.690;2023-05-28T04:43:41;6.00;;;2.00;;
71080;SDS011;58740;50.672;18.690;2023-05-28T04:46:09;6.00;;;2.00;;
71080;SDS011;58740;50.672;18.690;2023-05-28T04:48:37;6.40;;;2.00;;
71080;SDS011;58740;50.672;18.690;2023-05-28T04:51:05;8.20;;;2.10;;
71080;SDS011;58740;50.672;18.690;2023-05-28T04:53:33;8.80;;;2.50;;
71080;SDS011;58740;50.672;18.690;2023-05-28T04:56:04;5.70;;;2.10;;
71080;SDS011;58740;50.672;18.690;2023-05-28T04:58:32;7.00;;;2.40;;
71080;SDS011;58740;50.672;18.690;2023-05-28T05:01:00;6.60;;;2.20;;
71080;SDS011;58740;50.672;18.690;2023-05-28T05:03:30;7.00;;;1.80;;
71080;SDS011;58740;50.672;18.690;2023-05-28T05:05:59;5.60;;;2.10;;
71080;SDS011;58740;50.672;18.690;2023-05-28T05:08:27;6.10;;;1.60;;
71080;SDS011;58740;50.672;18.690;2023-05-28T05:10:55;7.40;;;1.80;;
71080;SDS011;58740;50.672;18.690;2023-05-28T05:13:23;8.80;;;2.00;;
71080;SDS011;58740;50.672;18.690;2023-05-28T05:15:51;7.40;;;2.10;;
71080;SDS011;58740;50.672;18.690;2023-05-28T05:18:19;6.10;;;2.20;;
71080;SDS011;58740;50.672;18.690;2023-05-28T05:20:47;6.50;;;2.40;;
71080;SDS011;58740;50.672;18.690;2023-05-28T05:23:15;5.30;;;1.80;;
71080;SDS011;58740;50.672;18.690;2023-05-28T05:25:43;5.80;;;1.70;;
71080;SDS011;58740;50.672;18.690;2023-05-28T05:28:11;5.60;;;1.90;;
71080;SDS011;58740;50.672;18.690;2023-05-28T05:30:40;5.20;;;1.60;;
71080;SDS011;58740;50.672;18.690;2023-05-28T05:33:07;5.90;;;1.90;;
71080;SDS011;58740;50.672;18.690;2023-05-28T05:35:35;5.70;;;1.50;;
71080;SDS011;58740;50.672;18.690;2023-05-28T05:38:03;7.60;;;2.20;;
71080;SDS011;58740;50.672;18.690;2023-05-28T05:40:31;6.40;;;1.40;;
71080;SDS011;58740;50.672;18.690;2023-05-28T05:42:59;6.30;;;1.40;;
71080;SDS011;58740;50.672;18.690;2023-05-28T05:45:27;6.20;;;1.50;;
71080;SDS011;58740;50.672;18.690;2023-05-28T05:47:54;5.40;;;2.10;;
71080;SDS011;58740;50.672;18.690;2023-05-28T05:50:22;5.50;;;1.60;;
71080;SDS011;58740;50.672;18.690;2023-05-28T05:52:50;5.40;;;1.50;;
71080;SDS011;58740;50.672;18.690;2023-05-28T05:55:18;4.30;;;1.40;;
71080;SDS011;58740;50.672;18.690;2023-05-28T05:57:45;6.20;;;1.50;;
71080;SDS011;58740;50.672;18.690;2023-05-28T06:00:14;4.90;;;1.10;;
71080;SDS011;58740;50.672;18.690;2023-05-28T06:02:42;5.10;;;1.40;;
71080;SDS011;58740;50.672;18.690;2023-05-28T06:05:10;9.30;;;1.50;;
71080;SDS011;58740;50.672;18.690;2023-05-28T06:07:38;2.50;;;1.10;;
71080;SDS011;58740;50.672;18.690;2023-05-28T06:10:06;3.60;;;1.00;;
71080;SDS011;58740;50.672;18.690;2023-05-28T06:12:34;4.70;;;1.30;;
71080;SDS011;58740;50.672;18.690;2023-05-28T06:15:02;4.80;;;1.50;;
71080;SDS011;58740;50.672;18.690;2023-05-28T06:17:31;5.10;;;1.50;;
71080;SDS011;58740;50.672;18.690;2023-05-28T06:19:59;4.50;;;1.50;;
71080;SDS011;58740;50.672;18.690;2023-05-28T06:22:28;5.60;;;2.40;;
71080;SDS011;58740;50.672;18.690;2023-05-28T06:24:56;5.30;;;1.40;;
71080;SDS011;58740;50.672;18.690;2023-05-28T06:27:23;7.20;;;1.40;;
71080;SDS011;58740;50.672;18.690;2023-05-28T06:29:51;4.30;;;1.10;;
71080;SDS011;58740;50.672;18.690;2023-05-28T06:32:19;2.80;;;0.90;;
71080;SDS011;58740;50.672;18.690;2023-05-28T06:34:47;4.20;;;0.70;;
71080;SDS011;58740;50.672;18.690;2023-05-28T06:37:15;4.70;;;1.80;;
71080;SDS011;58740;50.672;18.690;2023-05-28T06:39:43;5.60;;;1.40;;
71080;SDS011;58740;50.672;18.690;2023-05-28T06:42:11;3.70;;;1.20;;
71080;SDS011;58740;50.672;18.690;2023-05-28T06:44:38;6.40;;;1.20;;
71080;SDS011;58740;50.672;18.690;2023-05-28T06:47:06;4.40;;;1.10;;
71080;SDS011;58740;50.672;18.690;2023-05-28T06:49:34;4.90;;;0.90;;
71080;SDS011;58740;50.672;18.690;2023-05-28T06:52:02;2.70;;;0.90;;
71080;SDS011;58740;50.672;18.690;2023-05-28T06:54:30;6.20;;;1.20;;
71080;SDS011;58740;50.672;18.690;2023-05-28T06:56:57;6.80;;;1.30;;
71080;SDS011;58740;50.672;18.690;2023-05-28T06:59:25;5.40;;;1.00;;
71080;SDS011;58740;50.672;18.690;2023-05-28T07:01:53;6.40;;;1.20;;
71080;SDS011;58740;50.672;18.690;2023-05-28T07:04:21;5.40;;;1.10;;
71080;SDS011;58740;50.672;18.690;2023-05-28T07:06:49;2.70;;;1.00;;
71080;SDS011;58740;50.672;18.690;2023-05-28T07:09:17;3.80;;;1.00;;
71080;SDS011;58740;50.672;18.690;2023-05-28T07:11:44;3.00;;;0.80;;
71080;SDS011;58740;50.672;18.690;2023-05-28T07:14:12;4.10;;;0.80;;
71080;SDS011;58740;50.672;18.690;2023-05-28T07:16:40;3.30;;;0.80;;
71080;SDS011;58740;50.672;18.690;2023-05-28T07:19:08;2.90;;;1.10;;
71080;SDS011;58740;50.672;18.690;2023-05-28T07:21:36;4.70;;;0.90;;
71080;SDS011;58740;50.672;18.690;2023-05-28T07:24:05;4.10;;;1.00;;
71080;SDS011;58740;50.672;18.690;2023-05-28T07:26:33;7.70;;;1.50;;
71080;SDS011;58740;50.672;18.690;2023-05-28T07:29:01;4.50;;;1.40;;
71080;SDS011;58740;50.672;18.690;2023-05-28T07:31:29;5.80;;;1.00;;
71080;SDS011;58740;50.672;18.690;2023-05-28T07:33:59;4.70;;;1.20;;
71080;SDS011;58740;50.672;18.690;2023-05-28T07:36:26;4.80;;;1.20;;
71080;SDS011;58740;50.672;18.690;2023-05-28T07:38:54;5.50;;;1.20;;
71080;SDS011;58740;50.672;18.690;2023-05-28T07:41:22;5.10;;;1.30;;
71080;SDS011;58740;50.672;18.690;2023-05-28T07:43:50;3.20;;;1.30;;
71080;SDS011;58740;50.672;18.690;2023-05-28T07:46:20;4.50;;;1.10;;
71080;SDS011;58740;50.672;18.690;2023-05-28T07:48:49;2.90;;;0.90;;
71080;SDS011;58740;50.672;18.690;2023-05-28T07:51:17;4.90;;;1.20;;
71080;SDS011;58740;50.672;18.690;2023-05-28T07:53:45;5.10;;;1.20;;
71080;SDS011;58740;50.672;18.690;2023-05-28T07:56:13;3.00;;;0.90;;
71080;SDS011;58740;50.672;18.690;2023-05-28T07:58:44;2.90;;;0.90;;
71080;SDS011;58740;50.672;18.690;2023-05-28T08:01:12;3.90;;;1.30;;
71080;SDS011;58740;50.672;18.690;2023-05-28T08:03:40;2.40;;;0.80;;
71080;SDS011;58740;50.672;18.690;2023-05-28T08:06:08;3.00;;;0.70;;
71080;SDS011;58740;50.672;18.690;2023-05-28T08:08:36;5.10;;;1.10;;
71080;SDS011;58740;50.672;18.690;2023-05-28T08:11:04;4.70;;;1.00;;
71080;SDS011;58740;50.672;18.690;2023-05-28T08:13:32;6.90;;;1.90;;
71080;SDS011;58740;50.672;18.690;2023-05-28T08:15:59;4.10;;;1.20;;
71080;SDS011;58740;50.672;18.690;2023-05-28T08:18:32;5.40;;;1.40;;
71080;SDS011;58740;50.672;18.690;2023-05-28T08:20:59;3.40;;;1.10;;
71080;SDS011;58740;50.672;18.690;2023-05-28T08:23:27;4.70;;;1.20;;
71080;SDS011;58740;50.672;18.690;2023-05-28T08:25:55;4.90;;;1.40;;
71080;SDS011;58740;50.672;18.690;2023-05-28T08:28:23;5.20;;;1.40;;
71080;SDS011;58740;50.672;18.690;2023-05-28T08:30:51;3.80;;;1.20;;
71080;SDS011;58740;50.672;18.690;2023-05-28T08:33:19;5.00;;;1.20;;
71080;SDS011;58740;50.672;18.690;2023-05-28T08:35:47;7.80;;;1.40;;
71080;SDS011;58740;50.672;18.690;2023-05-28T08:38:15;3.30;;;1.10;;
71080;SDS011;58740;50.672;18.690;2023-05-28T08:40:51;4.10;;;1.20;;
71080;SDS011;58740;50.672;18.690;2023-05-28T08:43:22;2.20;;;0.90;;
71080;SDS011;58740;50.672;18.690;2023-05-28T08:45:53;3.60;;;0.90;;
71080;SDS011;58740;50.672;18.690;2023-05-28T08:48:22;3.40;;;1.20;;
71080;SDS011;58740;50.672;18.690;2023-05-28T08:50:51;4.20;;;1.20;;
71080;SDS011;58740;50.672;18.690;2023-05-28T08:53:22;3.00;;;1.00;;
71080;SDS011;58740;50.672;18.690;2023-05-28T08:55:56;5.30;;;1.10;;
71080;SDS011;58740;50.672;18.690;2023-05-28T08:58:25;4.00;;;1.40;;
71080;SDS011;58740;50.672;18.690;2023-05-28T09:00:52;3.80;;;1.30;;
71080;SDS011;58740;50.672;18.690;2023-05-28T09:03:21;2.90;;;1.00;;
71080;SDS011;58740;50.672;18.690;2023-05-28T09:05:48;6.60;;;2.30;;
71080;SDS011;58740;50.672;18.690;2023-05-28T09:08:16;2.90;;;1.00;;
71080;SDS011;58740;50.672;18.690;2023-05-28T09:10:44;3.00;;;1.10;;
71080;SDS011;58740;50.672;18.690;2023-05-28T09:13:12;4.90;;;1.20;;
71080;SDS011;58740;50.672;18.690;2023-05-28T09:15:39;4.00;;;1.00;;
71080;SDS011;58740;50.672;18.690;2023-05-28T09:18:09;5.10;;;1.20;;
71080;SDS011;58740;50.672;18.690;2023-05-28T09:20:37;4.20;;;1.10;;
71080;SDS011;58740;50.672;18.690;2023-05-28T09:23:06;3.80;;;1.20;;
71080;SDS011;58740;50.672;18.690;2023-05-28T09:25:35;5.20;;;1.40;;
71080;SDS011;58740;50.672;18.690;2023-05-28T09:28:04;6.00;;;1.70;;
71080;SDS011;58740;50.672;18.690;2023-05-28T09:30:35;4.40;;;1.10;;
71080;SDS011;58740;50.672;18.690;2023-05-28T09:33:07;3.70;;;1.10;;
71080;SDS011;58740;50.672;18.690;2023-05-28T09:35:36;4.90;;;1.30;;
71080;SDS011;58740;50.672;18.690;2023-05-28T09:38:10;6.50;;;1.60;;
71080;SDS011;58740;50.672;18.690;2023-05-28T09:40:43;5.50;;;1.80;;
71080;SDS011;58740;50.672;18.690;2023-05-28T09:43:11;7.00;;;1.50;;
71080;SDS011;58740;50.672;18.690;2023-05-28T09:45:39;5.00;;;1.50;;
71080;SDS011;58740;50.672;18.690;2023-05-28T09:48:06;3.90;;;1.20;;
71080;SDS011;58740;50.672;18.690;2023-05-28T09:50:34;5.60;;;1.20;;
71080;SDS011;58740;50.672;18.690;2023-05-28T09:53:03;3.60;;;0.90;;
71080;SDS011;58740;50.672;18.690;2023-05-28T09:55:34;7.40;;;1.30;;
71080;SDS011;58740;50.672;18.690;2023-05-28T09:58:05;8.20;;;1.70;;
71080;SDS011;58740;50.672;18.690;2023-05-28T10:00:43;5.40;;;1.40;;
71080;SDS011;58740;50.672;18.690;2023-05-28T10:03:34;8.30;;;1.30;;
71080;SDS011;58740;50.672;18.690;2023-05-28T10:06:14;5.70;;;1.40;;
71080;SDS011;58740;50.672;18.690;2023-05-28T10:08:50;5.30;;;1.60;;
71080;SDS011;58740;50.672;18.690;2023-05-28T10:11:23;5.60;;;1.20;;
71080;SDS011;58740;50.672;18.690;2023-05-28T10:13:56;4.60;;;1.40;;
71080;SDS011;58740;50.672;18.690;2023-05-28T10:16:25;4.50;;;1.30;;
71080;SDS011;58740;50.672;18.690;2023-05-28T10:18:55;3.90;;;1.40;;
71080;SDS011;58740;50.672;18.690;2023-05-28T10:21:24;4.30;;;1.30;;
71080;SDS011;58740;50.672;18.690;2023-05-28T10:23:53;6.20;;;1.40;;
71080;SDS011;58740;50.672;18.690;2023-05-28T10:26:24;5.30;;;1.20;;
71080;SDS011;58740;50.672;18.690;2023-05-28T10:28:54;4.90;;;1.30;;
71080;SDS011;58740;50.672;18.690;2023-05-28T10:31:23;6.50;;;1.40;;
71080;SDS011;58740;50.672;18.690;2023-05-28T10:33:51;4.90;;;1.40;;
71080;SDS011;58740;50.672;18.690;2023-05-28T10:36:19;5.20;;;1.00;;
71080;SDS011;58740;50.672;18.690;2023-05-28T10:41:21;4.40;;;1.20;;
71080;SDS011;58740;50.672;18.690;2023-05-28T10:43:50;6.10;;;1.20;;
71080;SDS011;58740;50.672;18.690;2023-05-28T10:46:26;3.20;;;1.20;;
71080;SDS011;58740;50.672;18.690;2023-05-28T10:49:13;4.20;;;1.10;;
71080;SDS011;58740;50.672;18.690;2023-05-28T10:51:45;4.80;;;1.20;;
71080;SDS011;58740;50.672;18.690;2023-05-28T10:54:38;4.10;;;1.10;;
71080;SDS011;58740;50.672;18.690;2023-05-28T10:57:19;7.80;;;1.70;;
71080;SDS011;58740;50.672;18.690;2023-05-28T10:59:59;5.40;;;1.50;;
71080;SDS011;58740;50.672;18.690;2023-05-28T11:02:33;4.50;;;1.50;;
71080;SDS011;58740;50.672;18.690;2023-05-28T11:05:03;8.40;;;2.90;;
71080;SDS011;58740;50.672;18.690;2023-05-28T11:07:40;4.80;;;1.40;;
71080;SDS011;58740;50.672;18.690;2023-05-28T11:10:10;6.20;;;1.20;;
71080;SDS011;58740;50.672;18.690;2023-05-28T11:12:44;5.40;;;1.30;;
71080;SDS011;58740;50.672;18.690;2023-05-28T11:15:14;5.10;;;1.70;;
71080;SDS011;58740;50.672;18.690;2023-05-28T11:17:44;5.80;;;1.50;;
71080;SDS011;58740;50.672;18.690;2023-05-28T11:20:21;4.00;;;1.30;;
71080;SDS011;58740;50.672;18.690;2023-05-28T11:22:54;4.50;;;1.40;;
71080;SDS011;58740;50.672;18.690;2023-05-28T11:25:23;6.90;;;1.50;;
71080;SDS011;58740;50.672;18.690;2023-05-28T11:27:55;4.00;;;1.10;;
71080;SDS011;58740;50.672;18.690;2023-05-28T11:30:25;4.20;;;1.40;;
71080;SDS011;58740;50.672;18.690;2023-05-28T11:32:53;4.50;;;1.30;;
71080;SDS011;58740;50.672;18.690;2023-05-28T11:35:22;2.90;;;1.00;;
71080;SDS011;58740;50.672;18.690;2023-05-28T11:37:50;4.10;;;1.30;;
71080;SDS011;58740;50.672;18.690;2023-05-28T11:40:17;4.10;;;1.40;;
71080;SDS011;58740;50.672;18.690;2023-05-28T11:42:46;4.10;;;1.50;;
71080;SDS011;58740;50.672;18.690;2023-05-28T11:45:13;6.00;;;1.30;;
71080;SDS011;58740;50.672;18.690;2023-05-28T11:47:41;4.00;;;1.20;;
71080;SDS011;58740;50.672;18.690;2023-05-28T11:50:15;7.60;;;1.30;;
71080;SDS011;58740;50.672;18.690;2023-05-28T11:52:44;4.10;;;1.40;;
71080;SDS011;58740;50.672;18.690;2023-05-28T11:55:14;3.90;;;1.50;;
71080;SDS011;58740;50.672;18.690;2023-05-28T11:57:51;5.10;;;1.50;;
71080;SDS011;58740;50.672;18.690;2023-05-28T12:00:32;6.00;;;1.50;;
71080;SDS011;58740;50.672;18.690;2023-05-28T12:03:02;3.70;;;1.30;;
71080;SDS011;58740;50.672;18.690;2023-05-28T12:05:36;4.10;;;1.20;;
71080;SDS011;58740;50.672;18.690;2023-05-28T12:08:06;7.00;;;3.40;;
71080;SDS011;58740;50.672;18.690;2023-05-28T12:10:34;6.30;;;2.00;;
71080;SDS011;58740;50.672;18.690;2023-05-28T12:13:02;3.30;;;1.20;;
71080;SDS011;58740;50.672;18.690;2023-05-28T12:15:30;7.70;;;1.70;;
71080;SDS011;58740;50.672;18.690;2023-05-28T12:18:00;4.10;;;1.40;;
71080;SDS011;58740;50.672;18.690;2023-05-28T12:20:32;6.00;;;1.30;;
71080;SDS011;58740;50.672;18.690;2023-05-28T12:23:05;4.80;;;1.20;;
71080;SDS011;58740;50.672;18.690;2023-05-28T12:28:11;5.30;;;1.60;;
71080;SDS011;58740;50.672;18.690;2023-05-28T12:30:41;4.60;;;1.30;;
71080;SDS011;58740;50.672;18.690;2023-05-28T12:33:11;4.80;;;1.40;;
71080;SDS011;58740;50.672;18.690;2023-05-28T12:35:39;4.40;;;1.40;;
71080;SDS011;58740;50.672;18.690;2023-05-28T12:38:08;3.90;;;1.10;;
71080;SDS011;58740;50.672;18.690;2023-05-28T12:40:36;5.30;;;1.20;;
71080;SDS011;58740;50.672;18.690;2023-05-28T12:43:04;3.20;;;1.30;;
71080;SDS011;58740;50.672;18.690;2023-05-28T12:45:33;4.40;;;1.20;;
71080;SDS011;58740;50.672;18.690;2023-05-28T12:48:02;3.20;;;1.20;;
71080;SDS011;58740;50.672;18.690;2023-05-28T12:50:30;2.80;;;1.30;;
71080;SDS011;58740;50.672;18.690;2023-05-28T12:52:58;3.60;;;1.40;;
71080;SDS011;58740;50.672;18.690;2023-05-28T12:55:26;6.70;;;1.60;;
71080;SDS011;58740;50.672;18.690;2023-05-28T12:57:54;5.30;;;1.10;;
71080;SDS011;58740;50.672;18.690;2023-05-28T13:00:22;4.50;;;1.30;;
71080;SDS011;58740;50.672;18.690;2023-05-28T13:02:51;4.80;;;1.30;;
71080;SDS011;58740;50.672;18.690;2023-05-28T13:05:19;6.50;;;1.70;;
71080;SDS011;58740;50.672;18.690;2023-05-28T13:07:47;3.30;;;1.10;;
71080;SDS011;58740;50.672;18.690;2023-05-28T13:10:15;4.80;;;1.30;;
71080;SDS011;58740;50.672;18.690;2023-05-28T13:12:43;3.80;;;1.00;;
71080;SDS011;58740;50.672;18.690;2023-05-28T13:15:11;4.80;;;1.30;;
71080;SDS011;58740;50.672;18.690;2023-05-28T13:17:39;5.50;;;1.60;;
71080;SDS011;58740;50.672;18.690;2023-05-28T13:20:07;5.00;;;1.30;;
71080;SDS011;58740;50.672;18.690;2023-05-28T13:22:39;4.20;;;1.10;;
71080;SDS011;58740;50.672;18.690;2023-05-28T13:25:08;3.20;;;1.20;;
71080;SDS011;58740;50.672;18.690;2023-05-28T13:27:36;4.20;;;1.10;;
71080;SDS011;58740;50.672;18.690;2023-05-28T13:30:05;5.30;;;1.30;;
71080;SDS011;58740;50.672;18.690;2023-05-28T13:32:34;3.50;;;1.20;;
71080;SDS011;58740;50.672;18.690;2023-05-28T13:35:03;3.80;;;1.20;;
71080;SDS011;58740;50.672;18.690;2023-05-28T13:37:32;2.90;;;1.10;;
71080;SDS011;58740;50.672;18.690;2023-05-28T13:40:01;5.20;;;1.40;;
71080;SDS011;58740;50.672;18.690;2023-05-28T13:42:33;5.20;;;1.40;;
71080;SDS011;58740;50.672;18.690;2023-05-28T13:45:02;2.70;;;1.20;;
71080;SDS011;58740;50.672;18.690;2023-05-28T13:47:31;5.70;;;1.30;;
71080;SDS011;58740;50.672;18.690;2023-05-28T13:49:59;6.30;;;1.90;;
71080;SDS011;58740;50.672;18.690;2023-05-28T13:52:27;5.50;;;1.50;;
71080;SDS011;58740;50.672;18.690;2023-05-28T13:54:54;4.40;;;1.50;;
71080;SDS011;58740;50.672;18.690;2023-05-28T13:57:22;4.30;;;1.40;;
71080;SDS011;58740;50.672;18.690;2023-05-28T13:59:50;6.50;;;1.50;;
71080;SDS011;58740;50.672;18.690;2023-05-28T14:02:18;5.40;;;1.50;;
71080;SDS011;58740;50.672;18.690;2023-05-28T14:04:46;5.50;;;1.50;;
71080;SDS011;58740;50.672;18.690;2023-05-28T14:07:13;4.40;;;1.30;;
71080;SDS011;58740;50.672;18.690;2023-05-28T14:09:41;3.70;;;1.40;;
71080;SDS011;58740;50.672;18.690;2023-05-28T14:12:09;4.90;;;1.60;;
71080;SDS011;58740;50.672;18.690;2023-05-28T14:14:49;4.70;;;1.40;;
71080;SDS011;58740;50.672;18.690;2023-05-28T14:17:17;5.90;;;1.50;;
71080;SDS011;58740;50.672;18.690;2023-05-28T14:19:45;4.70;;;1.60;;
71080;SDS011;58740;50.672;18.690;2023-05-28T14:22:15;5.20;;;1.40;;
71080;SDS011;58740;50.672;18.690;2023-05-28T14:24:43;4.60;;;1.20;;
71080;SDS011;58740;50.672;18.690;2023-05-28T14:27:11;2.70;;;1.10;;
71080;SDS011;58740;50.672;18.690;2023-05-28T14:29:38;2.60;;;1.20;;
71080;SDS011;58740;50.672;18.690;2023-05-28T14:32:06;5.00;;;1.60;;
71080;SDS011;58740;50.672;18.690;2023-05-28T14:34:34;6.80;;;1.70;;
71080;SDS011;58740;50.672;18.690;2023-05-28T14:37:02;3.60;;;1.10;;
71080;SDS011;58740;50.672;18.690;2023-05-28T14:39:30;4.50;;;1.50;;
71080;SDS011;58740;50.672;18.690;2023-05-28T14:41:58;4.40;;;1.40;;
71080;SDS011;58740;50.672;18.690;2023-05-28T14:44:26;5.10;;;1.70;;
71080;SDS011;58740;50.672;18.690;2023-05-28T14:46:54;4.40;;;1.70;;
71080;SDS011;58740;50.672;18.690;2023-05-28T14:49:22;5.80;;;1.30;;